Pagrindinis puslapis
METAR-TAF:

METAR-TAF

Oro uostai :

Marathon, Florida, Jungtinės Amerikos Valstijos

platuma: 24-43-33N, ilguma: 081-02-52W, Aukštis: 2 m

Dabartinis oras

Ataskaita buvo paskelbta 57 minutes, ne 04:53 UTC
Vėjas 5 kt iš Rytų
Temperatūra 28°C
Drėgmė 74%
Slėgis 1017 hPa
Matomumas: 16.1 km
Giedras dangus

METAR: KMTH 300453Z AUTO 10005KT 10SM CLR 28/23 A3004 RMK AO2 SLP171 T02830233 403170239 TSNO

Laikas: 01:50 (05:50 UTC)

Prognozė

Ataskaita buvo paskelbta 6 valandos ir 18 minutes, ne 23:32 UTC
Prognozė galioja nuo 30 metu 00 UTC su 30 metu 24 UTC
Vėjas 8 kt iš Rytų
Matomumas: 10 km
Išsisklaidę debesys ne aukštis 2500 ft
Liūtis kaimynystėje
Nuo 30 metu 1000 UTC
Vėjas 8 kt iš Rytų
Matomumas: 10 km
Mažai debesys ne aukštis 2500 ft

TAF: KMTH 292332Z 3000/3024 10008KT P6SM VCSH SCT025 FM301000 10008KT P6SM FEW025

Orai ataskaitas ir orų prognozės (METAR, TAF).

turimą stotys yra geltonos ir raudonos taškus žemėlapyje.

Perkelti pele per norėdami pamatyti stoties vardą.

Tada spustelėkite, norėdami matyti oro stebėjimo ir prognozės.

Norėdami pakeisti žemėlapį: spustelėkite ant žalios mygtukų su juodo kryžiaus žemyn,; žalią mygtuką su brūkšneliu, jei norite nutolinti; arba žalių rodyklių gretimoms žemėlapius.


METAR-TAF: